sensor_id;sensor_type;location;lat;lon;timestamp;P1;durP1;ratioP1;P2;durP2;ratioP2
58972;SDS011;44750;52.040;7.472;2023-08-20T00:02:16;2.53;;;1.85;;
58972;SDS011;44750;52.040;7.472;2023-08-20T00:07:18;2.90;;;1.88;;
58972;SDS011;44750;52.040;7.472;2023-08-20T00:12:18;3.15;;;2.08;;
58972;SDS011;44750;52.040;7.472;2023-08-20T00:17:19;6.88;;;1.90;;
58972;SDS011;44750;52.040;7.472;2023-08-20T00:22:20;5.13;;;2.00;;
58972;SDS011;44750;52.040;7.472;2023-08-20T00:27:22;3.53;;;2.22;;
58972;SDS011;44750;52.040;7.472;2023-08-20T00:32:22;4.28;;;2.05;;
58972;SDS011;44750;52.040;7.472;2023-08-20T00:37:22;3.70;;;2.05;;
58972;SDS011;44750;52.040;7.472;2023-08-20T00:42:22;4.47;;;2.42;;
58972;SDS011;44750;52.040;7.472;2023-08-20T00:47:23;8.07;;;2.80;;
58972;SDS011;44750;52.040;7.472;2023-08-20T00:52:23;2.70;;;2.00;;
58972;SDS011;44750;52.040;7.472;2023-08-20T00:57:23;4.35;;;2.28;;
58972;SDS011;44750;52.040;7.472;2023-08-20T01:02:24;5.70;;;1.92;;
58972;SDS011;44750;52.040;7.472;2023-08-20T01:07:32;2.28;;;1.75;;
58972;SDS011;44750;52.040;7.472;2023-08-20T01:12:42;4.00;;;2.05;;
58972;SDS011;44750;52.040;7.472;2023-08-20T01:17:43;5.88;;;1.92;;
58972;SDS011;44750;52.040;7.472;2023-08-20T01:33:27;4.65;;;1.83;;
58972;SDS011;44750;52.040;7.472;2023-08-20T01:38:28;3.47;;;1.90;;
58972;SDS011;44750;52.040;7.472;2023-08-20T01:43:28;2.53;;;1.75;;
58972;SDS011;44750;52.040;7.472;2023-08-20T01:48:29;3.78;;;1.80;;
58972;SDS011;44750;52.040;7.472;2023-08-20T01:53:29;2.42;;;1.90;;
58972;SDS011;44750;52.040;7.472;2023-08-20T01:58:29;2.15;;;1.60;;
58972;SDS011;44750;52.040;7.472;2023-08-20T02:03:29;6.90;;;2.13;;
58972;SDS011;44750;52.040;7.472;2023-08-20T02:08:30;4.43;;;1.92;;
58972;SDS011;44750;52.040;7.472;2023-08-20T02:13:30;2.78;;;1.80;;
58972;SDS011;44750;52.040;7.472;2023-08-20T02:18:31;1.85;;;1.65;;
58972;SDS011;44750;52.040;7.472;2023-08-20T02:23:32;5.67;;;1.90;;
58972;SDS011;44750;52.040;7.472;2023-08-20T02:28:32;2.45;;;1.75;;
58972;SDS011;44750;52.040;7.472;2023-08-20T02:33:32;2.65;;;1.92;;
58972;SDS011;44750;52.040;7.472;2023-08-20T02:38:32;5.00;;;2.85;;
58972;SDS011;44750;52.040;7.472;2023-08-20T02:43:33;3.73;;;2.70;;
58972;SDS011;44750;52.040;7.472;2023-08-20T02:48:33;6.47;;;3.53;;
58972;SDS011;44750;52.040;7.472;2023-08-20T02:53:33;3.42;;;2.65;;
58972;SDS011;44750;52.040;7.472;2023-08-20T02:58:33;6.53;;;2.40;;
58972;SDS011;44750;52.040;7.472;2023-08-20T03:03:33;4.28;;;3.40;;
58972;SDS011;44750;52.040;7.472;2023-08-20T03:08:34;4.88;;;2.90;;
58972;SDS011;44750;52.040;7.472;2023-08-20T03:13:34;4.30;;;2.47;;
58972;SDS011;44750;52.040;7.472;2023-08-20T03:18:34;4.80;;;3.07;;
58972;SDS011;44750;52.040;7.472;2023-08-20T03:23:34;5.72;;;2.67;;
58972;SDS011;44750;52.040;7.472;2023-08-20T03:28:35;3.13;;;2.20;;
58972;SDS011;44750;52.040;7.472;2023-08-20T03:33:35;4.72;;;2.22;;
58972;SDS011;44750;52.040;7.472;2023-08-20T03:38:35;3.33;;;2.33;;
58972;SDS011;44750;52.040;7.472;2023-08-20T03:43:35;3.42;;;2.20;;
58972;SDS011;44750;52.040;7.472;2023-08-20T03:48:35;4.70;;;2.87;;
58972;SDS011;44750;52.040;7.472;2023-08-20T03:53:36;4.95;;;2.80;;
58972;SDS011;44750;52.040;7.472;2023-08-20T03:58:36;3.78;;;2.55;;
58972;SDS011;44750;52.040;7.472;2023-08-20T04:03:36;4.22;;;2.58;;
58972;SDS011;44750;52.040;7.472;2023-08-20T04:08:36;8.73;;;3.47;;
58972;SDS011;44750;52.040;7.472;2023-08-20T04:13:36;6.97;;;3.22;;
58972;SDS011;44750;52.040;7.472;2023-08-20T04:18:37;11.30;;;3.50;;
58972;SDS011;44750;52.040;7.472;2023-08-20T04:23:37;4.82;;;3.22;;
58972;SDS011;44750;52.040;7.472;2023-08-20T04:28:37;6.28;;;3.78;;
58972;SDS011;44750;52.040;7.472;2023-08-20T04:33:37;3.35;;;2.70;;
58972;SDS011;44750;52.040;7.472;2023-08-20T04:38:38;3.50;;;2.83;;
58972;SDS011;44750;52.040;7.472;2023-08-20T04:43:38;4.18;;;3.10;;
58972;SDS011;44750;52.040;7.472;2023-08-20T04:48:38;5.50;;;3.03;;
58972;SDS011;44750;52.040;7.472;2023-08-20T04:53:38;9.10;;;3.00;;
58972;SDS011;44750;52.040;7.472;2023-08-20T04:58:38;4.88;;;3.53;;
58972;SDS011;44750;52.040;7.472;2023-08-20T05:03:39;6.20;;;3.13;;
58972;SDS011;44750;52.040;7.472;2023-08-20T05:08:39;4.03;;;3.03;;
58972;SDS011;44750;52.040;7.472;2023-08-20T05:13:39;4.60;;;2.70;;
58972;SDS011;44750;52.040;7.472;2023-08-20T05:18:39;4.13;;;3.08;;
58972;SDS011;44750;52.040;7.472;2023-08-20T05:23:40;6.50;;;3.97;;
58972;SDS011;44750;52.040;7.472;2023-08-20T05:28:40;11.40;;;3.55;;
58972;SDS011;44750;52.040;7.472;2023-08-20T05:33:40;5.15;;;3.47;;
58972;SDS011;44750;52.040;7.472;2023-08-20T05:38:41;8.53;;;2.83;;
58972;SDS011;44750;52.040;7.472;2023-08-20T05:43:41;6.22;;;3.97;;
58972;SDS011;44750;52.040;7.472;2023-08-20T05:48:41;5.28;;;3.47;;
58972;SDS011;44750;52.040;7.472;2023-08-20T05:53:41;6.13;;;4.07;;
58972;SDS011;44750;52.040;7.472;2023-08-20T05:58:42;7.97;;;3.70;;
58972;SDS011;44750;52.040;7.472;2023-08-20T06:03:42;10.52;;;3.38;;
58972;SDS011;44750;52.040;7.472;2023-08-20T06:08:42;6.53;;;3.60;;
58972;SDS011;44750;52.040;7.472;2023-08-20T06:13:42;7.75;;;3.97;;
58972;SDS011;44750;52.040;7.472;2023-08-20T06:18:42;5.70;;;4.20;;
58972;SDS011;44750;52.040;7.472;2023-08-20T06:23:43;6.57;;;5.07;;
58972;SDS011;44750;52.040;7.472;2023-08-20T06:28:43;11.77;;;6.18;;
58972;SDS011;44750;52.040;7.472;2023-08-20T06:33:43;8.95;;;6.55;;
58972;SDS011;44750;52.040;7.472;2023-08-20T06:38:43;11.10;;;6.93;;
58972;SDS011;44750;52.040;7.472;2023-08-20T06:43:43;8.93;;;6.18;;
58972;SDS011;44750;52.040;7.472;2023-08-20T06:48:44;9.60;;;6.30;;
58972;SDS011;44750;52.040;7.472;2023-08-20T06:53:44;9.98;;;6.82;;
58972;SDS011;44750;52.040;7.472;2023-08-20T06:58:45;8.70;;;6.50;;
58972;SDS011;44750;52.040;7.472;2023-08-20T07:03:46;9.25;;;6.65;;
58972;SDS011;44750;52.040;7.472;2023-08-20T07:08:46;10.50;;;5.95;;
58972;SDS011;44750;52.040;7.472;2023-08-20T07:13:46;8.27;;;6.82;;
58972;SDS011;44750;52.040;7.472;2023-08-20T07:18:48;9.25;;;7.10;;
58972;SDS011;44750;52.040;7.472;2023-08-20T07:23:48;18.25;;;7.75;;
58972;SDS011;44750;52.040;7.472;2023-08-20T07:28:48;8.63;;;5.97;;
58972;SDS011;44750;52.040;7.472;2023-08-20T07:33:49;11.52;;;7.90;;
58972;SDS011;44750;52.040;7.472;2023-08-20T07:38:50;10.57;;;7.38;;
58972;SDS011;44750;52.040;7.472;2023-08-20T07:43:51;9.70;;;7.53;;
58972;SDS011;44750;52.040;7.472;2023-08-20T07:48:52;11.80;;;8.25;;
58972;SDS011;44750;52.040;7.472;2023-08-20T07:53:52;12.68;;;8.48;;
58972;SDS011;44750;52.040;7.472;2023-08-20T07:58:53;15.57;;;9.45;;
58972;SDS011;44750;52.040;7.472;2023-08-20T08:03:53;11.43;;;8.70;;
58972;SDS011;44750;52.040;7.472;2023-08-20T08:08:53;10.85;;;8.68;;
58972;SDS011;44750;52.040;7.472;2023-08-20T08:13:53;12.98;;;9.52;;
58972;SDS011;44750;52.040;7.472;2023-08-20T08:18:53;18.40;;;9.52;;
58972;SDS011;44750;52.040;7.472;2023-08-20T08:23:54;13.75;;;8.88;;
58972;SDS011;44750;52.040;7.472;2023-08-20T08:28:54;11.20;;;8.55;;
58972;SDS011;44750;52.040;7.472;2023-08-20T08:33:54;11.52;;;7.40;;
58972;SDS011;44750;52.040;7.472;2023-08-20T08:38:55;10.37;;;7.90;;
58972;SDS011;44750;52.040;7.472;2023-08-20T08:43:55;9.15;;;7.22;;
58972;SDS011;44750;52.040;7.472;2023-08-20T08:48:55;17.08;;;8.30;;
58972;SDS011;44750;52.040;7.472;2023-08-20T08:53:56;10.37;;;7.33;;
58972;SDS011;44750;52.040;7.472;2023-08-20T08:58:56;11.13;;;7.27;;
58972;SDS011;44750;52.040;7.472;2023-08-20T09:03:56;10.00;;;7.15;;
58972;SDS011;44750;52.040;7.472;2023-08-20T09:09:03;8.95;;;7.45;;
58972;SDS011;44750;52.040;7.472;2023-08-20T09:14:05;11.02;;;8.07;;
58972;SDS011;44750;52.040;7.472;2023-08-20T09:19:06;10.13;;;7.85;;
58972;SDS011;44750;52.040;7.472;2023-08-20T09:24:07;14.27;;;8.93;;
58972;SDS011;44750;52.040;7.472;2023-08-20T09:29:11;15.27;;;8.48;;
58972;SDS011;44750;52.040;7.472;2023-08-20T09:34:12;10.83;;;6.93;;
58972;SDS011;44750;52.040;7.472;2023-08-20T09:39:12;9.07;;;6.53;;
58972;SDS011;44750;52.040;7.472;2023-08-20T09:44:13;8.48;;;6.65;;
58972;SDS011;44750;52.040;7.472;2023-08-20T09:49:16;10.05;;;6.32;;
58972;SDS011;44750;52.040;7.472;2023-08-20T09:54:19;6.35;;;4.35;;
58972;SDS011;44750;52.040;7.472;2023-08-20T09:59:25;7.43;;;4.60;;
58972;SDS011;44750;52.040;7.472;2023-08-20T10:04:27;10.02;;;4.30;;
58972;SDS011;44750;52.040;7.472;2023-08-20T10:09:28;3.38;;;2.40;;
58972;SDS011;44750;52.040;7.472;2023-08-20T10:14:29;4.50;;;3.83;;
58972;SDS011;44750;52.040;7.472;2023-08-20T10:19:29;6.97;;;4.35;;
58972;SDS011;44750;52.040;7.472;2023-08-20T10:24:49;5.15;;;3.65;;
58972;SDS011;44750;52.040;7.472;2023-08-20T10:29:52;6.07;;;3.30;;
58972;SDS011;44750;52.040;7.472;2023-08-20T10:34:53;6.22;;;3.63;;
58972;SDS011;44750;52.040;7.472;2023-08-20T10:39:57;3.65;;;2.83;;
58972;SDS011;44750;52.040;7.472;2023-08-20T10:44:58;7.47;;;3.97;;
58972;SDS011;44750;52.040;7.472;2023-08-20T10:50:05;6.55;;;3.00;;
58972;SDS011;44750;52.040;7.472;2023-08-20T10:55:07;3.97;;;2.83;;
58972;SDS011;44750;52.040;7.472;2023-08-20T11:00:08;7.20;;;2.90;;
58972;SDS011;44750;52.040;7.472;2023-08-20T11:05:18;4.43;;;2.63;;
58972;SDS011;44750;52.040;7.472;2023-08-20T11:10:20;4.68;;;3.03;;
58972;SDS011;44750;52.040;7.472;2023-08-20T11:15:20;6.63;;;3.38;;
58972;SDS011;44750;52.040;7.472;2023-08-20T11:20:20;3.43;;;2.80;;
58972;SDS011;44750;52.040;7.472;2023-08-20T11:25:20;3.25;;;2.35;;
58972;SDS011;44750;52.040;7.472;2023-08-20T11:30:21;6.65;;;2.17;;
58972;SDS011;44750;52.040;7.472;2023-08-20T11:35:21;3.00;;;1.88;;
58972;SDS011;44750;52.040;7.472;2023-08-20T11:40:22;2.20;;;1.88;;
58972;SDS011;44750;52.040;7.472;2023-08-20T11:45:22;2.78;;;1.80;;
58972;SDS011;44750;52.040;7.472;2023-08-20T11:50:23;3.87;;;2.03;;
58972;SDS011;44750;52.040;7.472;2023-08-20T11:55:24;3.35;;;2.33;;
58972;SDS011;44750;52.040;7.472;2023-08-20T12:00:28;3.83;;;1.65;;
58972;SDS011;44750;52.040;7.472;2023-08-20T12:05:30;2.75;;;1.60;;
58972;SDS011;44750;52.040;7.472;2023-08-20T12:10:31;2.75;;;1.92;;
58972;SDS011;44750;52.040;7.472;2023-08-20T12:15:32;3.00;;;2.25;;
58972;SDS011;44750;52.040;7.472;2023-08-20T12:20:33;3.05;;;2.08;;
58972;SDS011;44750;52.040;7.472;2023-08-20T12:25:36;1.88;;;1.40;;
58972;SDS011;44750;52.040;7.472;2023-08-20T12:30:36;2.45;;;1.40;;
58972;SDS011;44750;52.040;7.472;2023-08-20T12:35:36;3.95;;;2.15;;
58972;SDS011;44750;52.040;7.472;2023-08-20T12:40:37;2.40;;;1.60;;
58972;SDS011;44750;52.040;7.472;2023-08-20T12:45:37;3.10;;;1.98;;
58972;SDS011;44750;52.040;7.472;2023-08-20T12:50:37;3.00;;;1.83;;
58972;SDS011;44750;52.040;7.472;2023-08-20T12:55:37;2.22;;;1.65;;
58972;SDS011;44750;52.040;7.472;2023-08-20T13:00:38;1.75;;;1.35;;
58972;SDS011;44750;52.040;7.472;2023-08-20T13:05:38;1.90;;;1.20;;
58972;SDS011;44750;52.040;7.472;2023-08-20T13:10:39;1.83;;;1.30;;
58972;SDS011;44750;52.040;7.472;2023-08-20T13:15:40;2.05;;;1.10;;
58972;SDS011;44750;52.040;7.472;2023-08-20T13:20:41;2.97;;;1.70;;
58972;SDS011;44750;52.040;7.472;2023-08-20T13:25:41;2.35;;;1.33;;
58972;SDS011;44750;52.040;7.472;2023-08-20T13:30:41;1.17;;;0.93;;
58972;SDS011;44750;52.040;7.472;2023-08-20T13:35:42;1.40;;;1.13;;
58972;SDS011;44750;52.040;7.472;2023-08-20T13:40:42;2.70;;;1.23;;
58972;SDS011;44750;52.040;7.472;2023-08-20T13:45:42;2.30;;;1.10;;
58972;SDS011;44750;52.040;7.472;2023-08-20T13:50:42;1.52;;;0.80;;
58972;SDS011;44750;52.040;7.472;2023-08-20T13:55:42;1.58;;;0.93;;
58972;SDS011;44750;52.040;7.472;2023-08-20T14:00:43;1.10;;;0.75;;
58972;SDS011;44750;52.040;7.472;2023-08-20T14:05:43;4.60;;;0.95;;
58972;SDS011;44750;52.040;7.472;2023-08-20T14:10:43;1.73;;;0.90;;
58972;SDS011;44750;52.040;7.472;2023-08-20T14:15:43;1.10;;;0.75;;
58972;SDS011;44750;52.040;7.472;2023-08-20T14:20:44;0.93;;;0.68;;
58972;SDS011;44750;52.040;7.472;2023-08-20T14:25:44;3.55;;;0.88;;
58972;SDS011;44750;52.040;7.472;2023-08-20T14:30:44;1.45;;;0.50;;
58972;SDS011;44750;52.040;7.472;2023-08-20T14:35:44;1.15;;;0.60;;
58972;SDS011;44750;52.040;7.472;2023-08-20T14:40:45;1.30;;;0.80;;
58972;SDS011;44750;52.040;7.472;2023-08-20T14:45:45;2.22;;;1.60;;
58972;SDS011;44750;52.040;7.472;2023-08-20T14:50:45;1.75;;;0.90;;
58972;SDS011;44750;52.040;7.472;2023-08-20T14:55:45;1.42;;;0.88;;
58972;SDS011;44750;52.040;7.472;2023-08-20T15:00:48;0.80;;;0.50;;
58972;SDS011;44750;52.040;7.472;2023-08-20T15:05:48;1.90;;;1.17;;
58972;SDS011;44750;52.040;7.472;2023-08-20T15:10:58;1.33;;;0.80;;
58972;SDS011;44750;52.040;7.472;2023-08-20T15:15:59;0.43;;;0.43;;
58972;SDS011;44750;52.040;7.472;2023-08-20T15:20:59;2.15;;;0.70;;
58972;SDS011;44750;52.040;7.472;2023-08-20T15:26:00;2.55;;;1.60;;
58972;SDS011;44750;52.040;7.472;2023-08-20T15:31:00;23.30;;;11.48;;
58972;SDS011;44750;52.040;7.472;2023-08-20T15:36:00;1.60;;;1.03;;
58972;SDS011;44750;52.040;7.472;2023-08-20T15:41:01;2.63;;;1.13;;
58972;SDS011;44750;52.040;7.472;2023-08-20T15:46:01;0.80;;;0.60;;
58972;SDS011;44750;52.040;7.472;2023-08-20T15:51:01;1.48;;;0.80;;
58972;SDS011;44750;52.040;7.472;2023-08-20T15:56:02;0.20;;;0.20;;
58972;SDS011;44750;52.040;7.472;2023-08-20T16:01:02;2.05;;;0.60;;
58972;SDS011;44750;52.040;7.472;2023-08-20T16:06:02;0.32;;;0.32;;
58972;SDS011;44750;52.040;7.472;2023-08-20T16:11:02;1.63;;;1.13;;
58972;SDS011;44750;52.040;7.472;2023-08-20T16:16:03;0.90;;;0.73;;
58972;SDS011;44750;52.040;7.472;2023-08-20T16:21:03;1.27;;;0.80;;
58972;SDS011;44750;52.040;7.472;2023-08-20T16:26:03;12.68;;;0.70;;
58972;SDS011;44750;52.040;7.472;2023-08-20T16:31:04;0.73;;;0.57;;
58972;SDS011;44750;52.040;7.472;2023-08-20T16:36:05;0.55;;;0.50;;
58972;SDS011;44750;52.040;7.472;2023-08-20T16:41:05;0.87;;;0.57;;
58972;SDS011;44750;52.040;7.472;2023-08-20T16:46:06;1.30;;;0.70;;
58972;SDS011;44750;52.040;7.472;2023-08-20T16:51:06;2.15;;;1.42;;
58972;SDS011;44750;52.040;7.472;2023-08-20T16:56:06;1.55;;;1.40;;
58972;SDS011;44750;52.040;7.472;2023-08-20T17:01:06;0.93;;;0.70;;
58972;SDS011;44750;52.040;7.472;2023-08-20T17:06:07;0.52;;;0.52;;
58972;SDS011;44750;52.040;7.472;2023-08-20T17:11:07;0.40;;;0.20;;
58972;SDS011;44750;52.040;7.472;2023-08-20T17:16:08;1.65;;;0.80;;
58972;SDS011;44750;52.040;7.472;2023-08-20T17:21:08;1.20;;;0.80;;
58972;SDS011;44750;52.040;7.472;2023-08-20T17:26:09;1.77;;;0.60;;
58972;SDS011;44750;52.040;7.472;2023-08-20T17:31:09;1.73;;;0.40;;
58972;SDS011;44750;52.040;7.472;2023-08-20T17:36:09;0.47;;;0.30;;
58972;SDS011;44750;52.040;7.472;2023-08-20T17:41:09;3.75;;;0.73;;
58972;SDS011;44750;52.040;7.472;2023-08-20T17:46:09;1.77;;;1.20;;
58972;SDS011;44750;52.040;7.472;2023-08-20T17:51:10;3.30;;;0.93;;
58972;SDS011;44750;52.040;7.472;2023-08-20T17:56:10;1.02;;;0.88;;
58972;SDS011;44750;52.040;7.472;2023-08-20T18:01:10;2.95;;;1.23;;
58972;SDS011;44750;52.040;7.472;2023-08-20T18:06:10;5.40;;;0.70;;
58972;SDS011;44750;52.040;7.472;2023-08-20T18:11:10;1.55;;;1.00;;
58972;SDS011;44750;52.040;7.472;2023-08-20T18:16:11;0.60;;;0.60;;
58972;SDS011;44750;52.040;7.472;2023-08-20T18:21:11;1.23;;;0.90;;
58972;SDS011;44750;52.040;7.472;2023-08-20T18:26:11;1.27;;;0.90;;
58972;SDS011;44750;52.040;7.472;2023-08-20T18:31:12;3.05;;;1.20;;
58972;SDS011;44750;52.040;7.472;2023-08-20T18:36:12;2.80;;;1.30;;
58972;SDS011;44750;52.040;7.472;2023-08-20T18:41:12;2.50;;;0.85;;
58972;SDS011;44750;52.040;7.472;2023-08-20T18:46:13;1.05;;;0.57;;
58972;SDS011;44750;52.040;7.472;2023-08-20T18:51:13;1.02;;;0.70;;
58972;SDS011;44750;52.040;7.472;2023-08-20T18:56:13;0.65;;;0.43;;
58972;SDS011;44750;52.040;7.472;2023-08-20T19:01:13;1.95;;;0.65;;
58972;SDS011;44750;52.040;7.472;2023-08-20T19:06:13;5.00;;;0.70;;
58972;SDS011;44750;52.040;7.472;2023-08-20T19:11:14;3.40;;;0.68;;
58972;SDS011;44750;52.040;7.472;2023-08-20T19:16:14;1.85;;;0.75;;
58972;SDS011;44750;52.040;7.472;2023-08-20T19:21:14;1.23;;;0.55;;
58972;SDS011;44750;52.040;7.472;2023-08-20T19:26:14;0.65;;;0.45;;
58972;SDS011;44750;52.040;7.472;2023-08-20T19:31:17;0.85;;;0.65;;
58972;SDS011;44750;52.040;7.472;2023-08-20T19:36:17;1.00;;;0.57;;
58972;SDS011;44750;52.040;7.472;2023-08-20T19:41:18;1.88;;;0.98;;
58972;SDS011;44750;52.040;7.472;2023-08-20T19:46:18;2.17;;;0.70;;
58972;SDS011;44750;52.040;7.472;2023-08-20T19:51:18;1.60;;;0.90;;
58972;SDS011;44750;52.040;7.472;2023-08-20T19:56:18;1.43;;;0.67;;
58972;SDS011;44750;52.040;7.472;2023-08-20T20:01:20;2.30;;;0.90;;
58972;SDS011;44750;52.040;7.472;2023-08-20T20:06:21;4.20;;;0.98;;
58972;SDS011;44750;52.040;7.472;2023-08-20T20:11:22;0.55;;;0.55;;
58972;SDS011;44750;52.040;7.472;2023-08-20T20:16:22;0.98;;;0.70;;
58972;SDS011;44750;52.040;7.472;2023-08-20T20:21:22;2.33;;;0.75;;
58972;SDS011;44750;52.040;7.472;2023-08-20T20:26:23;3.30;;;0.95;;
58972;SDS011;44750;52.040;7.472;2023-08-20T20:31:23;1.20;;;0.68;;
58972;SDS011;44750;52.040;7.472;2023-08-20T20:36:23;4.65;;;0.95;;
58972;SDS011;44750;52.040;7.472;2023-08-20T20:41:23;2.15;;;0.88;;
58972;SDS011;44750;52.040;7.472;2023-08-20T20:46:23;0.82;;;0.55;;
58972;SDS011;44750;52.040;7.472;2023-08-20T20:51:24;1.25;;;0.80;;
58972;SDS011;44750;52.040;7.472;2023-08-20T20:56:24;4.25;;;0.82;;
58972;SDS011;44750;52.040;7.472;2023-08-20T21:01:24;1.98;;;0.93;;
58972;SDS011;44750;52.040;7.472;2023-08-20T21:06:24;0.85;;;0.70;;
58972;SDS011;44750;52.040;7.472;2023-08-20T21:11:25;1.98;;;0.95;;
58972;SDS011;44750;52.040;7.472;2023-08-20T21:16:25;1.65;;;0.80;;
58972;SDS011;44750;52.040;7.472;2023-08-20T21:21:25;0.80;;;0.60;;
58972;SDS011;44750;52.040;7.472;2023-08-20T21:26:25;0.98;;;0.60;;
58972;SDS011;44750;52.040;7.472;2023-08-20T21:31:25;1.65;;;0.70;;
58972;SDS011;44750;52.040;7.472;2023-08-20T21:36:26;0.75;;;0.63;;
58972;SDS011;44750;52.040;7.472;2023-08-20T21:41:26;1.27;;;0.50;;
58972;SDS011;44750;52.040;7.472;2023-08-20T21:46:26;2.35;;;0.68;;
58972;SDS011;44750;52.040;7.472;2023-08-20T21:51:27;0.70;;;0.60;;
58972;SDS011;44750;52.040;7.472;2023-08-20T21:56:27;2.03;;;0.65;;
58972;SDS011;44750;52.040;7.472;2023-08-20T22:01:28;1.20;;;0.70;;
58972;SDS011;44750;52.040;7.472;2023-08-20T22:06:28;2.97;;;0.88;;
58972;SDS011;44750;52.040;7.472;2023-08-20T22:11:28;0.95;;;0.60;;
58972;SDS011;44750;52.040;7.472;2023-08-20T22:16:29;0.73;;;0.70;;
58972;SDS011;44750;52.040;7.472;2023-08-20T22:21:29;5.38;;;0.65;;
58972;SDS011;44750;52.040;7.472;2023-08-20T22:26:29;1.17;;;0.82;;
58972;SDS011;44750;52.040;7.472;2023-08-20T22:31:30;1.20;;;0.60;;
58972;SDS011;44750;52.040;7.472;2023-08-20T22:36:30;1.38;;;1.00;;
58972;SDS011;44750;52.040;7.472;2023-08-20T22:41:31;1.10;;;0.68;;
58972;SDS011;44750;52.040;7.472;2023-08-20T22:46:31;2.80;;;0.70;;
58972;SDS011;44750;52.040;7.472;2023-08-20T22:51:31;1.08;;;0.75;;
58972;SDS011;44750;52.040;7.472;2023-08-20T22:56:31;1.00;;;0.90;;
58972;SDS011;44750;52.040;7.472;2023-08-20T23:01:33;1.63;;;0.95;;
58972;SDS011;44750;52.040;7.472;2023-08-20T23:06:34;2.67;;;1.15;;
58972;SDS011;44750;52.040;7.472;2023-08-20T23:11:34;3.35;;;0.98;;
58972;SDS011;44750;52.040;7.472;2023-08-20T23:16:34;3.13;;;0.88;;
58972;SDS011;44750;52.040;7.472;2023-08-20T23:21:34;1.08;;;0.90;;
58972;SDS011;44750;52.040;7.472;2023-08-20T23:26:35;0.60;;;0.60;;
58972;SDS011;44750;52.040;7.472;2023-08-20T23:31:35;1.08;;;0.93;;
58972;SDS011;44750;52.040;7.472;2023-08-20T23:36:35;1.80;;;0.73;;
58972;SDS011;44750;52.040;7.472;2023-08-20T23:41:35;0.52;;;0.52;;
58972;SDS011;44750;52.040;7.472;2023-08-20T23:46:35;0.45;;;0.40;;
58972;SDS011;44750;52.040;7.472;2023-08-20T23:51:36;0.85;;;0.63;;
58972;SDS011;44750;52.040;7.472;2023-08-20T23:56:36;2.80;;;0.82;;
